Terminal Aerodrome Forecast
Issued by NWS Shreveport, LA

Home | Current Version | Previous Version | Text Only | Print | Product List | Glossary On
Versions: 1 2 3 4 5 6 7 8 9 10 11 12 13 14 15 16 17 18
055
FTUS44 KSHV 271151
TAFSHV
TAF
KSHV 271151Z 2712/2812 10005KT P6SM VCTS SCT005 OVC013CB
      TEMPO 2712/2716 VRB06KT 3SM TSRA BR BKN005 OVC010CB
     FM271800 15006KT P6SM VCTS BKN015 OVC030CB
     FM272100 16009KT P6SM VCTS BKN025 OVC035CB
     FM280000 15008KT P6SM BKN035 OVC050
     FM280800 18008KT 3SM BR OVC010=

USA.gov is the U.S. government's official web portal to all federal, state and local government web resources and services.